sensor_id;sensor_type;location;lat;lon;timestamp;P1;durP1;ratioP1;P2;durP2;ratioP2
71427;SDS011;59246;59.102;37.928;2022-08-21T00:01:24;9.30;;;4.53;;
71427;SDS011;59246;59.102;37.928;2022-08-21T00:03:53;9.55;;;4.20;;
71427;SDS011;59246;59.102;37.928;2022-08-21T00:06:22;12.00;;;4.53;;
71427;SDS011;59246;59.102;37.928;2022-08-21T00:08:49;11.38;;;3.47;;
71427;SDS011;59246;59.102;37.928;2022-08-21T00:11:22;10.05;;;4.45;;
71427;SDS011;59246;59.102;37.928;2022-08-21T00:13:48;9.77;;;3.92;;
71427;SDS011;59246;59.102;37.928;2022-08-21T00:16:13;7.10;;;4.20;;
71427;SDS011;59246;59.102;37.928;2022-08-21T00:18:39;13.45;;;4.28;;
71427;SDS011;59246;59.102;37.928;2022-08-21T00:21:06;7.40;;;3.83;;
71427;SDS011;59246;59.102;37.928;2022-08-21T00:23:33;6.15;;;3.97;;
71427;SDS011;59246;59.102;37.928;2022-08-21T00:26:00;13.45;;;4.28;;
71427;SDS011;59246;59.102;37.928;2022-08-21T00:28:26;7.25;;;4.05;;
71427;SDS011;59246;59.102;37.928;2022-08-21T00:30:51;8.13;;;4.47;;
71427;SDS011;59246;59.102;37.928;2022-08-21T00:33:17;6.50;;;4.15;;
71427;SDS011;59246;59.102;37.928;2022-08-21T00:35:43;8.38;;;4.28;;
71427;SDS011;59246;59.102;37.928;2022-08-21T00:38:09;7.18;;;4.25;;
71427;SDS011;59246;59.102;37.928;2022-08-21T00:40:39;16.85;;;4.68;;
71427;SDS011;59246;59.102;37.928;2022-08-21T00:43:08;14.05;;;4.55;;
71427;SDS011;59246;59.102;37.928;2022-08-21T00:45:36;8.05;;;4.40;;
71427;SDS011;59246;59.102;37.928;2022-08-21T00:48:02;8.15;;;4.95;;
71427;SDS011;59246;59.102;37.928;2022-08-21T00:50:29;14.80;;;5.28;;
71427;SDS011;59246;59.102;37.928;2022-08-21T00:52:58;7.43;;;4.00;;
71427;SDS011;59246;59.102;37.928;2022-08-21T00:55:26;10.18;;;4.57;;
71427;SDS011;59246;59.102;37.928;2022-08-21T00:57:54;12.20;;;4.97;;
71427;SDS011;59246;59.102;37.928;2022-08-21T01:00:25;14.23;;;5.05;;
71427;SDS011;59246;59.102;37.928;2022-08-21T01:02:57;10.60;;;4.77;;
71427;SDS011;59246;59.102;37.928;2022-08-21T01:05:24;9.32;;;5.63;;
71427;SDS011;59246;59.102;37.928;2022-08-21T01:07:50;12.52;;;5.95;;
71427;SDS011;59246;59.102;37.928;2022-08-21T01:10:17;11.20;;;5.40;;
71427;SDS011;59246;59.102;37.928;2022-08-21T01:12:43;12.30;;;5.57;;
71427;SDS011;59246;59.102;37.928;2022-08-21T01:15:09;11.07;;;5.47;;
71427;SDS011;59246;59.102;37.928;2022-08-21T01:17:40;11.60;;;5.93;;
71427;SDS011;59246;59.102;37.928;2022-08-21T01:20:09;11.00;;;5.90;;
71427;SDS011;59246;59.102;37.928;2022-08-21T01:22:36;10.35;;;5.72;;
71427;SDS011;59246;59.102;37.928;2022-08-21T01:25:03;12.80;;;5.65;;
71427;SDS011;59246;59.102;37.928;2022-08-21T01:27:31;12.93;;;5.95;;
71427;SDS011;59246;59.102;37.928;2022-08-21T01:30:01;13.25;;;6.00;;
71427;SDS011;59246;59.102;37.928;2022-08-21T01:32:35;13.45;;;5.75;;
71427;SDS011;59246;59.102;37.928;2022-08-21T01:35:01;11.68;;;6.00;;
71427;SDS011;59246;59.102;37.928;2022-08-21T01:37:27;9.82;;;5.72;;
71427;SDS011;59246;59.102;37.928;2022-08-21T01:39:53;11.60;;;5.93;;
71427;SDS011;59246;59.102;37.928;2022-08-21T01:42:20;9.80;;;5.68;;
71427;SDS011;59246;59.102;37.928;2022-08-21T01:44:45;7.82;;;5.63;;
71427;SDS011;59246;59.102;37.928;2022-08-21T01:47:13;12.02;;;5.55;;
71427;SDS011;59246;59.102;37.928;2022-08-21T01:49:40;11.48;;;5.55;;
71427;SDS011;59246;59.102;37.928;2022-08-21T01:52:06;11.23;;;5.53;;
71427;SDS011;59246;59.102;37.928;2022-08-21T01:54:33;14.43;;;6.43;;
71427;SDS011;59246;59.102;37.928;2022-08-21T01:56:58;9.45;;;5.50;;
71427;SDS011;59246;59.102;37.928;2022-08-21T01:59:26;10.75;;;5.47;;
71427;SDS011;59246;59.102;37.928;2022-08-21T02:01:52;10.88;;;5.88;;
71427;SDS011;59246;59.102;37.928;2022-08-21T02:04:22;12.48;;;5.93;;
71427;SDS011;59246;59.102;37.928;2022-08-21T02:06:49;11.63;;;6.43;;
71427;SDS011;59246;59.102;37.928;2022-08-21T02:09:15;15.45;;;6.30;;
71427;SDS011;59246;59.102;37.928;2022-08-21T02:11:41;12.68;;;5.93;;
71427;SDS011;59246;59.102;37.928;2022-08-21T02:14:08;11.45;;;6.07;;
71427;SDS011;59246;59.102;37.928;2022-08-21T02:16:34;11.05;;;6.78;;
71427;SDS011;59246;59.102;37.928;2022-08-21T02:19:01;10.50;;;6.20;;
71427;SDS011;59246;59.102;37.928;2022-08-21T02:21:27;14.35;;;6.70;;
71427;SDS011;59246;59.102;37.928;2022-08-21T02:23:53;14.07;;;6.70;;
71427;SDS011;59246;59.102;37.928;2022-08-21T02:26:19;13.18;;;6.80;;
71427;SDS011;59246;59.102;37.928;2022-08-21T02:28:44;16.10;;;6.10;;
71427;SDS011;59246;59.102;37.928;2022-08-21T02:31:10;11.32;;;6.75;;
71427;SDS011;59246;59.102;37.928;2022-08-21T02:33:36;17.58;;;7.32;;
71427;SDS011;59246;59.102;37.928;2022-08-21T02:36:02;17.40;;;6.82;;
71427;SDS011;59246;59.102;37.928;2022-08-21T02:38:30;17.77;;;7.18;;
71427;SDS011;59246;59.102;37.928;2022-08-21T02:40:58;12.32;;;6.90;;
71427;SDS011;59246;59.102;37.928;2022-08-21T02:43:25;23.13;;;7.10;;
71427;SDS011;59246;59.102;37.928;2022-08-21T02:45:51;14.30;;;7.55;;
71427;SDS011;59246;59.102;37.928;2022-08-21T02:48:20;14.65;;;7.22;;
71427;SDS011;59246;59.102;37.928;2022-08-21T02:50:56;12.70;;;7.25;;
71427;SDS011;59246;59.102;37.928;2022-08-21T02:53:27;14.48;;;7.78;;
71427;SDS011;59246;59.102;37.928;2022-08-21T02:55:54;13.63;;;7.63;;
71427;SDS011;59246;59.102;37.928;2022-08-21T02:58:24;14.77;;;7.47;;
71427;SDS011;59246;59.102;37.928;2022-08-21T03:00:52;19.73;;;7.68;;
71427;SDS011;59246;59.102;37.928;2022-08-21T03:03:19;16.63;;;7.45;;
71427;SDS011;59246;59.102;37.928;2022-08-21T03:05:46;20.02;;;7.80;;
71427;SDS011;59246;59.102;37.928;2022-08-21T03:08:13;18.38;;;7.75;;
71427;SDS011;59246;59.102;37.928;2022-08-21T03:10:42;13.05;;;7.90;;
71427;SDS011;59246;59.102;37.928;2022-08-21T03:13:09;20.65;;;8.75;;
71427;SDS011;59246;59.102;37.928;2022-08-21T03:15:36;17.90;;;8.02;;
71427;SDS011;59246;59.102;37.928;2022-08-21T03:18:02;17.38;;;8.43;;
71427;SDS011;59246;59.102;37.928;2022-08-21T03:20:29;17.77;;;8.98;;
71427;SDS011;59246;59.102;37.928;2022-08-21T03:22:57;14.52;;;8.10;;
71427;SDS011;59246;59.102;37.928;2022-08-21T03:25:24;19.95;;;8.50;;
71427;SDS011;59246;59.102;37.928;2022-08-21T03:27:51;19.75;;;9.07;;
71427;SDS011;59246;59.102;37.928;2022-08-21T03:30:18;17.83;;;9.45;;
71427;SDS011;59246;59.102;37.928;2022-08-21T03:32:47;18.75;;;10.23;;
71427;SDS011;59246;59.102;37.928;2022-08-21T03:35:13;16.60;;;9.05;;
71427;SDS011;59246;59.102;37.928;2022-08-21T03:37:39;19.70;;;10.38;;
71427;SDS011;59246;59.102;37.928;2022-08-21T03:40:06;19.38;;;10.18;;
71427;SDS011;59246;59.102;37.928;2022-08-21T03:42:34;22.10;;;10.57;;
71427;SDS011;59246;59.102;37.928;2022-08-21T03:45:00;17.52;;;10.48;;
71427;SDS011;59246;59.102;37.928;2022-08-21T03:47:26;18.08;;;10.00;;
71427;SDS011;59246;59.102;37.928;2022-08-21T03:49:52;23.77;;;10.30;;
71427;SDS011;59246;59.102;37.928;2022-08-21T03:52:19;23.02;;;10.00;;
71427;SDS011;59246;59.102;37.928;2022-08-21T03:54:45;18.45;;;9.38;;
71427;SDS011;59246;59.102;37.928;2022-08-21T03:57:11;22.88;;;10.52;;
71427;SDS011;59246;59.102;37.928;2022-08-21T03:59:37;26.55;;;10.93;;
71427;SDS011;59246;59.102;37.928;2022-08-21T04:02:05;20.17;;;10.38;;
71427;SDS011;59246;59.102;37.928;2022-08-21T04:04:32;20.15;;;10.43;;
71427;SDS011;59246;59.102;37.928;2022-08-21T04:06:59;22.80;;;11.30;;
71427;SDS011;59246;59.102;37.928;2022-08-21T04:09:25;23.17;;;11.10;;
71427;SDS011;59246;59.102;37.928;2022-08-21T04:11:51;23.25;;;10.35;;
71427;SDS011;59246;59.102;37.928;2022-08-21T04:14:17;21.15;;;10.00;;
71427;SDS011;59246;59.102;37.928;2022-08-21T04:16:44;24.88;;;10.70;;
71427;SDS011;59246;59.102;37.928;2022-08-21T04:19:11;19.98;;;10.82;;
71427;SDS011;59246;59.102;37.928;2022-08-21T04:21:40;16.52;;;9.95;;
71427;SDS011;59246;59.102;37.928;2022-08-21T04:24:06;21.98;;;9.93;;
71427;SDS011;59246;59.102;37.928;2022-08-21T04:26:34;22.85;;;9.90;;
71427;SDS011;59246;59.102;37.928;2022-08-21T04:29:00;18.58;;;9.50;;
71427;SDS011;59246;59.102;37.928;2022-08-21T04:31:30;16.48;;;9.98;;
71427;SDS011;59246;59.102;37.928;2022-08-21T04:33:55;19.67;;;10.30;;
71427;SDS011;59246;59.102;37.928;2022-08-21T04:36:22;19.05;;;9.68;;
71427;SDS011;59246;59.102;37.928;2022-08-21T04:38:48;18.73;;;9.40;;
71427;SDS011;59246;59.102;37.928;2022-08-21T04:41:14;21.00;;;9.82;;
71427;SDS011;59246;59.102;37.928;2022-08-21T04:43:40;18.73;;;10.48;;
71427;SDS011;59246;59.102;37.928;2022-08-21T04:46:06;19.55;;;9.27;;
71427;SDS011;59246;59.102;37.928;2022-08-21T04:48:31;17.75;;;9.77;;
71427;SDS011;59246;59.102;37.928;2022-08-21T04:51:15;19.10;;;9.38;;
71427;SDS011;59246;59.102;37.928;2022-08-21T04:53:49;21.60;;;9.63;;
71427;SDS011;59246;59.102;37.928;2022-08-21T04:56:21;19.88;;;9.50;;
71427;SDS011;59246;59.102;37.928;2022-08-21T04:58:51;20.75;;;9.80;;
71427;SDS011;59246;59.102;37.928;2022-08-21T05:01:21;15.75;;;9.35;;
71427;SDS011;59246;59.102;37.928;2022-08-21T05:03:50;18.30;;;9.00;;
71427;SDS011;59246;59.102;37.928;2022-08-21T05:06:20;20.10;;;9.70;;
71427;SDS011;59246;59.102;37.928;2022-08-21T05:08:49;19.77;;;9.35;;
71427;SDS011;59246;59.102;37.928;2022-08-21T05:11:18;16.17;;;9.18;;
71427;SDS011;59246;59.102;37.928;2022-08-21T05:13:45;18.42;;;8.88;;
71427;SDS011;59246;59.102;37.928;2022-08-21T05:16:11;17.98;;;9.10;;
71427;SDS011;59246;59.102;37.928;2022-08-21T05:18:37;18.75;;;9.85;;
71427;SDS011;59246;59.102;37.928;2022-08-21T05:21:03;15.95;;;9.00;;
71427;SDS011;59246;59.102;37.928;2022-08-21T05:23:29;16.38;;;8.60;;
71427;SDS011;59246;59.102;37.928;2022-08-21T05:25:55;18.05;;;8.75;;
71427;SDS011;59246;59.102;37.928;2022-08-21T05:28:21;14.70;;;7.78;;
71427;SDS011;59246;59.102;37.928;2022-08-21T05:30:46;22.63;;;8.65;;
71427;SDS011;59246;59.102;37.928;2022-08-21T05:33:12;16.85;;;8.02;;
71427;SDS011;59246;59.102;37.928;2022-08-21T05:35:38;16.63;;;8.00;;
71427;SDS011;59246;59.102;37.928;2022-08-21T05:38:05;21.60;;;8.30;;
71427;SDS011;59246;59.102;37.928;2022-08-21T05:40:31;15.90;;;7.70;;
71427;SDS011;59246;59.102;37.928;2022-08-21T05:42:57;16.27;;;7.85;;
71427;SDS011;59246;59.102;37.928;2022-08-21T05:45:28;11.52;;;7.53;;
71427;SDS011;59246;59.102;37.928;2022-08-21T05:47:56;16.27;;;7.95;;
71427;SDS011;59246;59.102;37.928;2022-08-21T05:50:22;16.58;;;7.30;;
71427;SDS011;59246;59.102;37.928;2022-08-21T05:52:48;19.90;;;7.80;;
71427;SDS011;59246;59.102;37.928;2022-08-21T05:55:14;16.60;;;8.38;;
71427;SDS011;59246;59.102;37.928;2022-08-21T05:57:40;17.85;;;7.78;;
71427;SDS011;59246;59.102;37.928;2022-08-21T06:00:07;11.20;;;6.82;;
71427;SDS011;59246;59.102;37.928;2022-08-21T06:02:38;10.27;;;7.18;;
71427;SDS011;59246;59.102;37.928;2022-08-21T06:05:05;19.17;;;8.63;;
71427;SDS011;59246;59.102;37.928;2022-08-21T06:07:30;22.30;;;8.73;;
71427;SDS011;59246;59.102;37.928;2022-08-21T06:09:57;17.77;;;8.25;;
71427;SDS011;59246;59.102;37.928;2022-08-21T06:12:22;21.48;;;8.25;;
71427;SDS011;59246;59.102;37.928;2022-08-21T06:14:48;17.73;;;8.63;;
71427;SDS011;59246;59.102;37.928;2022-08-21T06:17:17;15.20;;;8.20;;
71427;SDS011;59246;59.102;37.928;2022-08-21T06:19:43;15.07;;;7.45;;
71427;SDS011;59246;59.102;37.928;2022-08-21T06:22:09;25.33;;;7.78;;
71427;SDS011;59246;59.102;37.928;2022-08-21T06:24:35;13.57;;;7.18;;
71427;SDS011;59246;59.102;37.928;2022-08-21T06:27:03;21.67;;;7.22;;
71427;SDS011;59246;59.102;37.928;2022-08-21T06:29:33;19.02;;;7.78;;
71427;SDS011;59246;59.102;37.928;2022-08-21T06:31:59;23.35;;;7.97;;
71427;SDS011;59246;59.102;37.928;2022-08-21T06:34:26;18.42;;;6.80;;
71427;SDS011;59246;59.102;37.928;2022-08-21T06:36:52;16.13;;;6.93;;
71427;SDS011;59246;59.102;37.928;2022-08-21T06:39:17;11.48;;;6.63;;
71427;SDS011;59246;59.102;37.928;2022-08-21T06:41:43;14.57;;;7.22;;
71427;SDS011;59246;59.102;37.928;2022-08-21T06:44:09;18.95;;;6.45;;
71427;SDS011;59246;59.102;37.928;2022-08-21T06:46:34;10.30;;;5.93;;
71427;SDS011;59246;59.102;37.928;2022-08-21T06:49:00;8.60;;;4.88;;
71427;SDS011;59246;59.102;37.928;2022-08-21T06:51:26;10.13;;;4.60;;
71427;SDS011;59246;59.102;37.928;2022-08-21T06:53:52;11.35;;;4.97;;
71427;SDS011;59246;59.102;37.928;2022-08-21T06:56:18;19.45;;;5.40;;
71427;SDS011;59246;59.102;37.928;2022-08-21T06:58:44;12.60;;;4.80;;
71427;SDS011;59246;59.102;37.928;2022-08-21T07:01:10;10.85;;;4.00;;
71427;SDS011;59246;59.102;37.928;2022-08-21T07:03:37;7.78;;;3.55;;
71427;SDS011;59246;59.102;37.928;2022-08-21T07:06:05;9.38;;;4.18;;
71427;SDS011;59246;59.102;37.928;2022-08-21T07:08:32;6.22;;;4.00;;
71427;SDS011;59246;59.102;37.928;2022-08-21T07:10:59;13.02;;;4.30;;
71427;SDS011;59246;59.102;37.928;2022-08-21T07:13:26;9.65;;;4.60;;
71427;SDS011;59246;59.102;37.928;2022-08-21T07:15:53;8.30;;;4.50;;
71427;SDS011;59246;59.102;37.928;2022-08-21T07:18:19;16.50;;;5.57;;
71427;SDS011;59246;59.102;37.928;2022-08-21T07:20:45;9.52;;;4.28;;
71427;SDS011;59246;59.102;37.928;2022-08-21T07:25:54;14.20;;;4.10;;
71427;SDS011;59246;59.102;37.928;2022-08-21T07:28:21;17.00;;;5.57;;
71427;SDS011;59246;59.102;37.928;2022-08-21T07:30:50;12.25;;;4.38;;
71427;SDS011;59246;59.102;37.928;2022-08-21T07:33:17;9.40;;;4.05;;
71427;SDS011;59246;59.102;37.928;2022-08-21T07:35:43;10.82;;;4.47;;
71427;SDS011;59246;59.102;37.928;2022-08-21T07:38:09;7.55;;;3.75;;
71427;SDS011;59246;59.102;37.928;2022-08-21T07:40:34;11.25;;;3.88;;
71427;SDS011;59246;59.102;37.928;2022-08-21T07:43:00;7.13;;;3.78;;
71427;SDS011;59246;59.102;37.928;2022-08-21T07:45:26;9.30;;;4.00;;
71427;SDS011;59246;59.102;37.928;2022-08-21T07:47:52;15.23;;;4.22;;
71427;SDS011;59246;59.102;37.928;2022-08-21T07:50:18;14.55;;;3.63;;
71427;SDS011;59246;59.102;37.928;2022-08-21T07:52:44;12.70;;;3.70;;
71427;SDS011;59246;59.102;37.928;2022-08-21T07:55:12;12.73;;;3.45;;
71427;SDS011;59246;59.102;37.928;2022-08-21T07:57:40;12.15;;;3.42;;
71427;SDS011;59246;59.102;37.928;2022-08-21T08:00:07;9.20;;;3.20;;
71427;SDS011;59246;59.102;37.928;2022-08-21T08:02:35;22.42;;;4.05;;
71427;SDS011;59246;59.102;37.928;2022-08-21T08:05:02;7.63;;;3.72;;
71427;SDS011;59246;59.102;37.928;2022-08-21T08:07:29;11.57;;;3.60;;
71427;SDS011;59246;59.102;37.928;2022-08-21T08:09:55;9.40;;;3.15;;
71427;SDS011;59246;59.102;37.928;2022-08-21T08:12:21;6.55;;;3.58;;
71427;SDS011;59246;59.102;37.928;2022-08-21T08:14:47;8.02;;;3.05;;
71427;SDS011;59246;59.102;37.928;2022-08-21T08:17:13;10.20;;;3.40;;
71427;SDS011;59246;59.102;37.928;2022-08-21T08:19:39;9.60;;;3.20;;
71427;SDS011;59246;59.102;37.928;2022-08-21T08:22:14;5.75;;;2.78;;
71427;SDS011;59246;59.102;37.928;2022-08-21T08:24:44;8.52;;;2.95;;
71427;SDS011;59246;59.102;37.928;2022-08-21T08:27:14;12.45;;;2.67;;
71427;SDS011;59246;59.102;37.928;2022-08-21T08:29:41;7.82;;;3.20;;
71427;SDS011;59246;59.102;37.928;2022-08-21T08:32:08;7.53;;;2.95;;
71427;SDS011;59246;59.102;37.928;2022-08-21T08:34:34;7.30;;;3.00;;
71427;SDS011;59246;59.102;37.928;2022-08-21T08:37:01;8.95;;;2.80;;
71427;SDS011;59246;59.102;37.928;2022-08-21T08:39:28;5.13;;;2.70;;
71427;SDS011;59246;59.102;37.928;2022-08-21T08:41:56;11.93;;;2.67;;
71427;SDS011;59246;59.102;37.928;2022-08-21T08:44:32;14.40;;;3.45;;
71427;SDS011;59246;59.102;37.928;2022-08-21T08:46:59;11.10;;;3.00;;
71427;SDS011;59246;59.102;37.928;2022-08-21T08:49:31;13.98;;;3.38;;
71427;SDS011;59246;59.102;37.928;2022-08-21T08:54:55;7.65;;;2.95;;
71427;SDS011;59246;59.102;37.928;2022-08-21T08:57:33;10.52;;;3.42;;
71427;SDS011;59246;59.102;37.928;2022-08-21T09:00:04;8.70;;;3.78;;
71427;SDS011;59246;59.102;37.928;2022-08-21T09:02:35;8.20;;;3.57;;
71427;SDS011;59246;59.102;37.928;2022-08-21T09:05:05;7.28;;;3.40;;
71427;SDS011;59246;59.102;37.928;2022-08-21T09:10:18;11.90;;;3.50;;
71427;SDS011;59246;59.102;37.928;2022-08-21T09:12:57;7.78;;;3.85;;
71427;SDS011;59246;59.102;37.928;2022-08-21T09:15:36;6.43;;;3.33;;
71427;SDS011;59246;59.102;37.928;2022-08-21T09:18:17;8.68;;;3.63;;
71427;SDS011;59246;59.102;37.928;2022-08-21T09:27:01;12.98;;;4.32;;
71427;SDS011;59246;59.102;37.928;2022-08-21T09:29:33;15.90;;;3.63;;
71427;SDS011;59246;59.102;37.928;2022-08-21T09:32:01;13.90;;;4.03;;
71427;SDS011;59246;59.102;37.928;2022-08-21T09:34:31;9.63;;;4.00;;
71427;SDS011;59246;59.102;37.928;2022-08-21T09:36:57;10.93;;;4.03;;
71427;SDS011;59246;59.102;37.928;2022-08-21T09:39:30;10.00;;;3.65;;
71427;SDS011;59246;59.102;37.928;2022-08-21T09:42:04;9.07;;;3.67;;
71427;SDS011;59246;59.102;37.928;2022-08-21T09:44:33;7.53;;;3.58;;
71427;SDS011;59246;59.102;37.928;2022-08-21T09:47:05;10.00;;;3.63;;
71427;SDS011;59246;59.102;37.928;2022-08-21T09:49:34;7.82;;;3.47;;
71427;SDS011;59246;59.102;37.928;2022-08-21T09:52:02;7.82;;;3.50;;
71427;SDS011;59246;59.102;37.928;2022-08-21T09:54:45;9.48;;;3.10;;
71427;SDS011;59246;59.102;37.928;2022-08-21T09:57:18;8.32;;;2.65;;
71427;SDS011;59246;59.102;37.928;2022-08-21T10:00:37;10.27;;;2.67;;
71427;SDS011;59246;59.102;37.928;2022-08-21T10:03:08;8.60;;;2.50;;
71427;SDS011;59246;59.102;37.928;2022-08-21T10:05:54;12.73;;;3.03;;
71427;SDS011;59246;59.102;37.928;2022-08-21T10:08:25;7.55;;;2.65;;
71427;SDS011;59246;59.102;37.928;2022-08-21T10:11:05;13.07;;;2.90;;
71427;SDS011;59246;59.102;37.928;2022-08-21T10:24:26;11.35;;;2.78;;
71427;SDS011;59246;59.102;37.928;2022-08-21T10:29:43;11.32;;;3.40;;
71427;SDS011;59246;59.102;37.928;2022-08-21T10:37:59;6.50;;;2.47;;
71427;SDS011;59246;59.102;37.928;2022-08-21T10:40:40;10.75;;;2.80;;
71427;SDS011;59246;59.102;37.928;2022-08-21T10:53:41;11.05;;;2.90;;
71427;SDS011;59246;59.102;37.928;2022-08-21T10:58:45;3.97;;;2.50;;
71427;SDS011;59246;59.102;37.928;2022-08-21T11:01:21;17.63;;;3.22;;
71427;SDS011;59246;59.102;37.928;2022-08-21T11:04:12;6.43;;;2.55;;
71427;SDS011;59246;59.102;37.928;2022-08-21T11:06:50;6.60;;;3.00;;
71427;SDS011;59246;59.102;37.928;2022-08-21T11:09:24;7.40;;;2.40;;
71427;SDS011;59246;59.102;37.928;2022-08-21T11:11:56;10.60;;;2.65;;
71427;SDS011;59246;59.102;37.928;2022-08-21T11:14:34;4.63;;;2.50;;
71427;SDS011;59246;59.102;37.928;2022-08-21T11:17:22;7.80;;;3.00;;
71427;SDS011;59246;59.102;37.928;2022-08-21T11:20:10;11.25;;;2.70;;
71427;SDS011;59246;59.102;37.928;2022-08-21T11:22:44;9.02;;;3.05;;
71427;SDS011;59246;59.102;37.928;2022-08-21T11:28:00;10.55;;;3.13;;
71427;SDS011;59246;59.102;37.928;2022-08-21T11:30:44;4.75;;;2.63;;
71427;SDS011;59246;59.102;37.928;2022-08-21T11:33:25;10.85;;;3.67;;
71427;SDS011;59246;59.102;37.928;2022-08-21T11:36:15;6.25;;;3.10;;
71427;SDS011;59246;59.102;37.928;2022-08-21T11:38:46;12.98;;;3.30;;
71427;SDS011;59246;59.102;37.928;2022-08-21T11:44:17;11.00;;;3.35;;
71427;SDS011;59246;59.102;37.928;2022-08-21T11:46:57;11.90;;;3.72;;
71427;SDS011;59246;59.102;37.928;2022-08-21T11:57:41;6.60;;;3.80;;
71427;SDS011;59246;59.102;37.928;2022-08-21T12:00:36;5.60;;;3.17;;
71427;SDS011;59246;59.102;37.928;2022-08-21T12:03:55;14.35;;;3.50;;
71427;SDS011;59246;59.102;37.928;2022-08-21T12:06:09;7.82;;;3.63;;
71427;SDS011;59246;59.102;37.928;2022-08-21T12:08:38;7.15;;;3.25;;
71427;SDS011;59246;59.102;37.928;2022-08-21T12:11:07;16.23;;;3.80;;
71427;SDS011;59246;59.102;37.928;2022-08-21T12:13:38;13.45;;;3.50;;
71427;SDS011;59246;59.102;37.928;2022-08-21T12:18:39;10.60;;;3.30;;
71427;SDS011;59246;59.102;37.928;2022-08-21T12:21:25;10.45;;;4.30;;
71427;SDS011;59246;59.102;37.928;2022-08-21T12:24:00;8.00;;;3.40;;
71427;SDS011;59246;59.102;37.928;2022-08-21T12:29:16;9.65;;;3.60;;
71427;SDS011;59246;59.102;37.928;2022-08-21T12:31:50;13.95;;;3.88;;
71427;SDS011;59246;59.102;37.928;2022-08-21T12:34:47;6.38;;;3.50;;
71427;SDS011;59246;59.102;37.928;2022-08-21T12:37:24;7.32;;;3.67;;
71427;SDS011;59246;59.102;37.928;2022-08-21T12:40:00;6.57;;;3.72;;
71427;SDS011;59246;59.102;37.928;2022-08-21T12:45:11;13.48;;;3.45;;
71427;SDS011;59246;59.102;37.928;2022-08-21T12:47:50;6.03;;;3.47;;
71427;SDS011;59246;59.102;37.928;2022-08-21T12:53:09;11.13;;;3.75;;
71427;SDS011;59246;59.102;37.928;2022-08-21T12:55:42;8.00;;;3.30;;
71427;SDS011;59246;59.102;37.928;2022-08-21T12:58:19;7.00;;;3.40;;
71427;SDS011;59246;59.102;37.928;2022-08-21T13:00:57;6.78;;;3.67;;
71427;SDS011;59246;59.102;37.928;2022-08-21T13:03:31;7.75;;;3.22;;
71427;SDS011;59246;59.102;37.928;2022-08-21T13:06:02;6.40;;;3.30;;
71427;SDS011;59246;59.102;37.928;2022-08-21T13:08:28;4.40;;;3.42;;
71427;SDS011;59246;59.102;37.928;2022-08-21T13:10:57;11.93;;;3.80;;
71427;SDS011;59246;59.102;37.928;2022-08-21T13:13:27;3.58;;;3.10;;
71427;SDS011;59246;59.102;37.928;2022-08-21T13:15:58;8.93;;;3.58;;
71427;SDS011;59246;59.102;37.928;2022-08-21T13:18:26;7.60;;;3.25;;
71427;SDS011;59246;59.102;37.928;2022-08-21T13:21:03;11.18;;;4.18;;
71427;SDS011;59246;59.102;37.928;2022-08-21T13:23:31;11.05;;;4.57;;
71427;SDS011;59246;59.102;37.928;2022-08-21T13:25:57;10.70;;;3.47;;
71427;SDS011;59246;59.102;37.928;2022-08-21T13:28:23;5.50;;;3.28;;
71427;SDS011;59246;59.102;37.928;2022-08-21T13:30:58;5.97;;;3.03;;
71427;SDS011;59246;59.102;37.928;2022-08-21T13:33:31;5.03;;;3.35;;
71427;SDS011;59246;59.102;37.928;2022-08-21T13:38:25;7.25;;;3.75;;
71427;SDS011;59246;59.102;37.928;2022-08-21T13:40:55;11.93;;;3.45;;
71427;SDS011;59246;59.102;37.928;2022-08-21T13:43:25;6.20;;;3.50;;
71427;SDS011;59246;59.102;37.928;2022-08-21T13:45:54;6.97;;;3.42;;
71427;SDS011;59246;59.102;37.928;2022-08-21T13:48:22;11.63;;;4.13;;
71427;SDS011;59246;59.102;37.928;2022-08-21T13:50:50;8.77;;;3.35;;
71427;SDS011;59246;59.102;37.928;2022-08-21T13:53:35;8.20;;;4.00;;
71427;SDS011;59246;59.102;37.928;2022-08-21T13:56:21;7.50;;;3.80;;
71427;SDS011;59246;59.102;37.928;2022-08-21T13:58:52;5.95;;;3.42;;
71427;SDS011;59246;59.102;37.928;2022-08-21T14:01:27;7.07;;;3.72;;
71427;SDS011;59246;59.102;37.928;2022-08-21T14:04:12;5.55;;;3.33;;
71427;SDS011;59246;59.102;37.928;2022-08-21T14:06:45;10.43;;;4.70;;
71427;SDS011;59246;59.102;37.928;2022-08-21T14:09:21;7.15;;;3.30;;
71427;SDS011;59246;59.102;37.928;2022-08-21T14:12:50;10.80;;;4.05;;
71427;SDS011;59246;59.102;37.928;2022-08-21T14:14:53;10.65;;;4.20;;
71427;SDS011;59246;59.102;37.928;2022-08-21T14:17:29;8.35;;;3.90;;
71427;SDS011;59246;59.102;37.928;2022-08-21T14:20:00;10.93;;;3.47;;
71427;SDS011;59246;59.102;37.928;2022-08-21T14:25:01;7.93;;;3.45;;
71427;SDS011;59246;59.102;37.928;2022-08-21T14:27:32;6.18;;;3.58;;
71427;SDS011;59246;59.102;37.928;2022-08-21T14:30:08;10.40;;;3.53;;
71427;SDS011;59246;59.102;37.928;2022-08-21T14:32:38;6.65;;;3.72;;
71427;SDS011;59246;59.102;37.928;2022-08-21T14:35:06;14.25;;;3.53;;
71427;SDS011;59246;59.102;37.928;2022-08-21T14:37:32;10.70;;;3.25;;
71427;SDS011;59246;59.102;37.928;2022-08-21T14:39:58;7.70;;;3.22;;
71427;SDS011;59246;59.102;37.928;2022-08-21T14:42:24;8.60;;;3.45;;
71427;SDS011;59246;59.102;37.928;2022-08-21T14:44:50;7.18;;;3.40;;
71427;SDS011;59246;59.102;37.928;2022-08-21T14:47:16;8.40;;;3.70;;
71427;SDS011;59246;59.102;37.928;2022-08-21T14:49:42;5.88;;;3.45;;
71427;SDS011;59246;59.102;37.928;2022-08-21T14:52:08;8.27;;;3.55;;
71427;SDS011;59246;59.102;37.928;2022-08-21T14:54:34;16.77;;;3.28;;
71427;SDS011;59246;59.102;37.928;2022-08-21T14:57:04;6.82;;;3.42;;
71427;SDS011;59246;59.102;37.928;2022-08-21T14:59:34;8.55;;;3.60;;
71427;SDS011;59246;59.102;37.928;2022-08-21T15:02:00;9.15;;;3.10;;
71427;SDS011;59246;59.102;37.928;2022-08-21T15:04:29;12.50;;;4.13;;
71427;SDS011;59246;59.102;37.928;2022-08-21T15:06:54;7.85;;;3.30;;
71427;SDS011;59246;59.102;37.928;2022-08-21T15:09:20;10.65;;;3.30;;
71427;SDS011;59246;59.102;37.928;2022-08-21T15:11:47;10.00;;;3.10;;
71427;SDS011;59246;59.102;37.928;2022-08-21T15:14:18;6.47;;;3.28;;
71427;SDS011;59246;59.102;37.928;2022-08-21T15:16:47;5.55;;;3.58;;
71427;SDS011;59246;59.102;37.928;2022-08-21T15:19:13;6.82;;;3.42;;
71427;SDS011;59246;59.102;37.928;2022-08-21T15:21:38;8.45;;;3.10;;
71427;SDS011;59246;59.102;37.928;2022-08-21T15:24:04;5.57;;;3.28;;
71427;SDS011;59246;59.102;37.928;2022-08-21T15:26:30;7.47;;;3.38;;
71427;SDS011;59246;59.102;37.928;2022-08-21T15:28:56;6.95;;;3.00;;
71427;SDS011;59246;59.102;37.928;2022-08-21T15:31:21;4.80;;;3.28;;
71427;SDS011;59246;59.102;37.928;2022-08-21T15:33:47;5.90;;;3.30;;
71427;SDS011;59246;59.102;37.928;2022-08-21T15:36:13;5.30;;;3.20;;
71427;SDS011;59246;59.102;37.928;2022-08-21T15:38:39;5.25;;;3.33;;
71427;SDS011;59246;59.102;37.928;2022-08-21T15:41:04;8.55;;;3.42;;
71427;SDS011;59246;59.102;37.928;2022-08-21T15:43:37;8.20;;;3.10;;
71427;SDS011;59246;59.102;37.928;2022-08-21T15:46:07;7.65;;;3.10;;
71427;SDS011;59246;59.102;37.928;2022-08-21T15:48:37;6.53;;;3.33;;
71427;SDS011;59246;59.102;37.928;2022-08-21T15:51:03;4.75;;;3.10;;
71427;SDS011;59246;59.102;37.928;2022-08-21T15:53:28;5.63;;;3.65;;
71427;SDS011;59246;59.102;37.928;2022-08-21T15:55:57;5.35;;;2.75;;